createdAt,value
2018-08-12T00:01:27.065Z,2.70
2018-08-12T00:03:56.090Z,2.40
2018-08-12T00:06:25.197Z,2.50
2018-08-12T00:08:54.210Z,2.40
2018-08-12T00:11:23.266Z,2.63
2018-08-12T00:13:52.355Z,2.60
2018-08-12T00:16:21.429Z,2.70
2018-08-12T00:18:50.554Z,2.00
2018-08-12T00:21:19.648Z,2.67
2018-08-12T00:23:48.874Z,2.50
2018-08-12T00:26:17.916Z,2.03
2018-08-12T00:28:47.048Z,2.37
2018-08-12T00:31:16.136Z,2.50
2018-08-12T00:33:45.177Z,2.43
2018-08-12T00:36:14.241Z,2.43
2018-08-12T00:38:43.345Z,2.40
2018-08-12T00:41:12.379Z,2.70
2018-08-12T00:43:46.972Z,2.50
2018-08-12T00:46:16.033Z,2.40
2018-08-12T00:48:45.348Z,2.67
2018-08-12T00:51:14.364Z,2.40
2018-08-12T00:53:43.451Z,2.30
2018-08-12T00:58:47.897Z,2.60
2018-08-12T01:01:17.018Z,2.50
2018-08-12T01:03:46.025Z,2.07
2018-08-12T01:06:15.081Z,2.60
2018-08-12T01:08:44.138Z,2.53
2018-08-12T01:11:13.243Z,2.53
2018-08-12T01:13:42.262Z,2.50
2018-08-12T01:16:11.315Z,2.50
2018-08-12T01:18:40.672Z,2.10
2018-08-12T01:21:09.784Z,2.10
2018-08-12T01:23:38.892Z,2.50
2018-08-12T01:26:08.060Z,2.20
2018-08-12T01:28:37.109Z,2.40
2018-08-12T01:31:06.262Z,2.73
2018-08-12T01:33:38.342Z,2.47
2018-08-12T01:36:07.453Z,2.80
2018-08-12T01:38:36.634Z,2.60
2018-08-12T01:41:05.994Z,2.77
2018-08-12T01:43:35.118Z,2.40
2018-08-12T01:46:04.178Z,2.50
2018-08-12T01:48:33.205Z,2.40
2018-08-12T01:51:02.279Z,2.40
2018-08-12T01:53:31.373Z,2.50
2018-08-12T01:56:00.396Z,2.30
2018-08-12T01:58:29.472Z,1.90
2018-08-12T02:00:58.593Z,2.30
2018-08-12T02:03:27.598Z,2.20
2018-08-12T02:05:56.649Z,2.33
2018-08-12T02:08:25.696Z,2.10
2018-08-12T02:10:54.729Z,2.10
2018-08-12T02:13:24.133Z,2.10
2018-08-12T02:15:53.133Z,2.20
2018-08-12T02:18:22.192Z,2.17
2018-08-12T02:20:51.332Z,2.27
2018-08-12T02:23:20.360Z,2.43
2018-08-12T02:25:49.368Z,2.30
2018-08-12T02:28:18.425Z,2.57
2018-08-12T02:30:47.418Z,2.40
2018-08-12T02:33:16.438Z,2.53
2018-08-12T02:35:45.494Z,2.60
2018-08-12T02:38:14.573Z,2.83
2018-08-12T02:40:43.644Z,2.63
2018-08-12T02:43:12.686Z,2.47
2018-08-12T02:45:41.745Z,2.37
2018-08-12T02:48:10.743Z,2.70
2018-08-12T02:50:39.772Z,2.60
2018-08-12T02:53:08.858Z,2.50
2018-08-12T02:55:37.926Z,2.80
2018-08-12T02:58:07.031Z,2.50
2018-08-12T03:00:36.101Z,2.80
2018-08-12T03:03:05.241Z,2.30
2018-08-12T03:05:34.300Z,2.43
2018-08-12T03:08:03.339Z,2.60
2018-08-12T03:10:32.499Z,2.67
2018-08-12T03:13:01.503Z,2.40
2018-08-12T03:15:30.521Z,2.30
2018-08-12T03:17:59.605Z,2.50
2018-08-12T03:20:28.625Z,2.60
2018-08-12T03:22:57.713Z,2.00
2018-08-12T03:25:26.878Z,2.50
2018-08-12T03:27:55.928Z,2.50
2018-08-12T03:30:24.941Z,2.60
2018-08-12T03:32:54.285Z,2.30
2018-08-12T03:35:23.322Z,2.37
2018-08-12T03:37:52.377Z,2.10
2018-08-12T03:40:21.729Z,2.63
2018-08-12T03:42:50.845Z,2.60
2018-08-12T03:45:19.853Z,2.60
2018-08-12T03:47:48.912Z,2.63
2018-08-12T03:50:17.954Z,2.40
2018-08-12T03:52:46.993Z,2.30
2018-08-12T03:55:16.037Z,2.67
2018-08-12T03:57:45.103Z,2.63
2018-08-12T04:00:16.432Z,2.50
2018-08-12T04:02:46.671Z,2.20
2018-08-12T04:05:16.149Z,2.60
2018-08-12T04:07:45.221Z,2.40
2018-08-12T04:10:14.267Z,2.43
2018-08-12T04:12:43.322Z,2.50
2018-08-12T04:15:12.735Z,2.60
2018-08-12T04:17:42.007Z,2.20
2018-08-12T04:20:11.783Z,2.47
2018-08-12T04:22:41.328Z,2.23
2018-08-12T04:25:10.386Z,2.37
2018-08-12T04:27:39.436Z,2.40
2018-08-12T04:30:09.421Z,2.10
2018-08-12T04:32:38.542Z,2.27
2018-08-12T04:35:08.157Z,2.40
2018-08-12T04:37:37.277Z,2.20
2018-08-12T04:40:07.168Z,2.50
2018-08-12T04:42:36.231Z,2.43
2018-08-12T04:45:05.885Z,2.20
2018-08-12T04:47:34.943Z,2.30
2018-08-12T04:50:04.771Z,2.80
2018-08-12T04:52:33.795Z,2.40
2018-08-12T04:55:02.806Z,2.70
2018-08-12T04:57:31.862Z,2.17
2018-08-12T05:00:00.914Z,2.50
2018-08-12T05:02:30.297Z,2.20
2018-08-12T05:04:59.341Z,2.20
2018-08-12T05:07:28.378Z,2.30
2018-08-12T05:09:57.440Z,2.30
2018-08-12T05:12:26.519Z,2.37
2018-08-12T05:14:55.597Z,2.30
2018-08-12T05:17:24.661Z,2.20
2018-08-12T05:19:53.709Z,2.17
2018-08-12T05:22:22.848Z,2.20
2018-08-12T05:24:51.909Z,2.20
2018-08-12T05:27:21.005Z,2.10
2018-08-12T05:29:50.038Z,2.00
2018-08-12T05:32:19.041Z,1.80
2018-08-12T05:34:48.086Z,2.10
2018-08-12T05:37:17.114Z,2.20
2018-08-12T05:39:46.162Z,1.60
2018-08-12T05:42:15.169Z,1.90
2018-08-12T05:44:44.326Z,2.10
2018-08-12T05:47:13.740Z,2.10
2018-08-12T05:49:42.821Z,2.10
2018-08-12T05:52:11.905Z,2.37
2018-08-12T05:54:40.939Z,1.90
2018-08-12T05:57:10.020Z,1.90
2018-08-12T05:59:39.108Z,2.00
2018-08-12T06:02:08.327Z,1.83
2018-08-12T06:04:37.500Z,1.70
2018-08-12T06:07:06.620Z,1.80
2018-08-12T06:09:35.717Z,1.50
2018-08-12T06:12:04.866Z,1.37
2018-08-12T06:14:33.923Z,1.50
2018-08-12T06:17:03.306Z,1.30
2018-08-12T06:19:32.381Z,1.57
2018-08-12T06:22:01.458Z,1.43
2018-08-12T06:24:30.594Z,1.45
2018-08-12T06:26:59.645Z,1.40
2018-08-12T06:29:28.678Z,1.60
2018-08-12T06:31:57.716Z,1.47
2018-08-12T06:34:26.899Z,1.40
2018-08-12T06:36:55.870Z,1.50
2018-08-12T06:39:24.962Z,1.40
2018-08-12T06:41:54.061Z,1.20
2018-08-12T06:44:23.220Z,1.47
2018-08-12T06:46:52.333Z,1.20
2018-08-12T06:49:21.413Z,1.22
2018-08-12T06:51:50.496Z,1.30
2018-08-12T06:54:19.585Z,1.55
2018-08-12T06:56:49.002Z,1.40
2018-08-12T06:59:18.018Z,1.40
2018-08-12T07:01:47.054Z,1.30
2018-08-12T07:04:16.141Z,1.37
2018-08-12T07:06:45.177Z,1.30
2018-08-12T07:09:14.253Z,1.15
2018-08-12T07:11:43.288Z,1.37
2018-08-12T07:14:12.413Z,1.15
2018-08-12T07:16:41.436Z,1.30
2018-08-12T07:19:10.605Z,1.50
2018-08-12T07:21:39.691Z,1.50
2018-08-12T07:24:08.756Z,1.17
2018-08-12T07:26:37.889Z,1.20
2018-08-12T07:29:07.269Z,1.30
2018-08-12T07:31:36.387Z,1.20
2018-08-12T07:34:05.486Z,1.35
2018-08-12T07:36:34.590Z,1.20
2018-08-12T07:39:03.995Z,1.30
2018-08-12T07:41:33.273Z,1.30
2018-08-12T07:44:02.310Z,1.10
2018-08-12T07:46:31.757Z,1.35
2018-08-12T07:49:01.105Z,1.30
2018-08-12T07:51:30.137Z,1.27
2018-08-12T07:53:59.297Z,1.20
2018-08-12T07:56:28.741Z,1.20
2018-08-12T07:58:57.748Z,1.07
2018-08-12T08:01:26.762Z,1.10
2018-08-12T08:03:55.892Z,1.30
2018-08-12T08:06:25.087Z,1.00
2018-08-12T08:08:54.213Z,1.22
2018-08-12T08:11:23.354Z,1.47
2018-08-12T08:13:52.525Z,1.30
2018-08-12T08:16:21.656Z,1.25
2018-08-12T08:18:50.723Z,1.42
2018-08-12T08:21:19.805Z,1.17
2018-08-12T08:23:48.857Z,1.20
2018-08-12T08:26:17.855Z,1.20
2018-08-12T08:28:46.858Z,1.30
2018-08-12T08:31:16.096Z,1.10
2018-08-12T08:33:45.113Z,1.00
2018-08-12T08:36:14.197Z,1.10
2018-08-12T08:38:43.295Z,1.20
2018-08-12T08:41:12.349Z,1.17
2018-08-12T08:43:41.466Z,1.22
2018-08-12T08:46:10.545Z,0.85
2018-08-12T08:48:39.733Z,1.20
2018-08-12T08:51:08.889Z,1.02
2018-08-12T08:53:38.029Z,1.00
2018-08-12T08:56:07.284Z,1.05
2018-08-12T08:58:36.356Z,1.17
2018-08-12T09:01:05.531Z,1.20
2018-08-12T09:03:34.593Z,1.00
2018-08-12T09:06:03.693Z,0.90
2018-08-12T09:08:33.031Z,0.98
2018-08-12T09:11:01.886Z,0.90
2018-08-12T09:13:31.351Z,0.93
2018-08-12T09:16:00.919Z,0.80
2018-08-12T09:18:45.935Z,0.90
2018-08-12T09:21:15.023Z,0.90
2018-08-12T09:23:44.061Z,1.05
2018-08-12T09:26:13.149Z,1.07
2018-08-12T09:28:42.239Z,0.88
2018-08-12T09:31:11.672Z,0.60
2018-08-12T09:33:40.686Z,0.90
2018-08-12T09:36:09.724Z,0.90
2018-08-12T09:38:38.904Z,0.82
2018-08-12T09:41:08.038Z,0.90
2018-08-12T09:43:37.096Z,1.00
2018-08-12T09:46:06.230Z,0.93
2018-08-12T09:48:35.255Z,0.85
2018-08-12T09:51:04.350Z,1.00
2018-08-12T09:53:33.361Z,0.78
2018-08-12T09:56:02.375Z,0.70
2018-08-12T09:58:31.433Z,0.65
2018-08-12T10:01:00.433Z,0.90
2018-08-12T10:03:29.477Z,0.70
2018-08-12T10:05:58.496Z,0.93
2018-08-12T10:08:27.514Z,0.80
2018-08-12T10:10:56.584Z,1.17
2018-08-12T10:13:25.633Z,0.70
2018-08-12T10:15:54.712Z,0.93
2018-08-12T10:18:23.874Z,0.93
2018-08-12T10:20:52.948Z,0.98
2018-08-12T10:23:22.077Z,1.00
2018-08-12T10:25:51.110Z,0.90
2018-08-12T10:28:20.179Z,1.05
2018-08-12T10:30:49.193Z,0.90
2018-08-12T10:33:18.272Z,1.10
2018-08-12T10:35:47.301Z,0.90
2018-08-12T10:38:16.329Z,1.02
2018-08-12T10:40:45.378Z,0.90
2018-08-12T10:43:14.409Z,0.90
2018-08-12T10:45:43.401Z,1.05
2018-08-12T10:48:12.457Z,1.20
2018-08-12T10:50:41.517Z,1.00
2018-08-12T10:53:10.613Z,0.85
2018-08-12T10:55:39.756Z,1.00
2018-08-12T10:58:08.857Z,1.07
2018-08-12T11:00:44.325Z,1.00
2018-08-12T11:03:13.504Z,1.10
2018-08-12T11:05:42.600Z,1.10
2018-08-12T11:08:11.681Z,1.10
2018-08-12T11:10:40.756Z,0.93
2018-08-12T11:13:09.859Z,1.17
2018-08-12T11:15:38.885Z,1.10
2018-08-12T11:18:08.278Z,1.10
2018-08-12T11:20:37.472Z,1.10
2018-08-12T11:23:06.628Z,0.93
2018-08-12T11:25:36.023Z,1.00
2018-08-12T11:28:05.122Z,1.00
2018-08-12T11:30:34.181Z,0.95
2018-08-12T11:33:03.264Z,0.95
2018-08-12T11:35:32.372Z,1.17
2018-08-12T11:38:01.459Z,1.32
2018-08-12T11:40:30.514Z,1.40
2018-08-12T11:42:59.616Z,1.30
2018-08-12T11:45:28.660Z,1.42
2018-08-12T11:47:57.986Z,1.57
2018-08-12T11:50:27.136Z,1.32
2018-08-12T11:52:56.140Z,1.22
2018-08-12T11:55:25.348Z,1.20
2018-08-12T11:57:54.333Z,1.27
2018-08-12T12:00:23.438Z,1.30
2018-08-12T12:02:53.009Z,1.62
2018-08-12T12:05:22.365Z,1.27
2018-08-12T12:07:51.535Z,1.40
2018-08-12T12:10:22.651Z,1.30
2018-08-12T12:12:52.526Z,1.67
2018-08-12T12:15:21.603Z,1.40
2018-08-12T12:17:50.706Z,1.12
2018-08-12T12:20:20.207Z,1.50
2018-08-12T12:22:49.885Z,1.70
2018-08-12T12:25:20.226Z,1.27
2018-08-12T12:27:49.317Z,1.50
2018-08-12T12:30:20.429Z,1.30
2018-08-12T12:32:50.717Z,1.30
2018-08-12T12:35:19.832Z,1.50
2018-08-12T12:37:48.977Z,1.75
2018-08-12T12:40:18.961Z,1.67
2018-08-12T12:42:48.523Z,1.62
2018-08-12T12:45:17.902Z,1.40
2018-08-12T12:47:47.249Z,1.40
2018-08-12T12:50:20.065Z,1.50
2018-08-12T12:52:50.347Z,1.70
2018-08-12T12:55:20.818Z,1.75
2018-08-12T12:57:49.939Z,1.75
2018-08-12T13:00:20.185Z,1.77
2018-08-12T13:02:49.388Z,1.80
2018-08-12T13:05:21.150Z,1.60
2018-08-12T13:07:50.641Z,1.60
2018-08-12T13:10:20.084Z,1.72
2018-08-12T13:12:49.196Z,2.00
2018-08-12T13:15:18.417Z,2.10
2018-08-12T13:17:47.708Z,1.70
2018-08-12T13:20:17.993Z,1.70
2018-08-12T13:22:48.298Z,1.80
2018-08-12T13:25:19.023Z,1.85
2018-08-12T13:27:48.110Z,1.82
2018-08-12T13:30:18.192Z,1.80
2018-08-12T13:32:48.077Z,2.00
2018-08-12T13:35:17.382Z,2.00
2018-08-12T13:37:47.410Z,1.67
2018-08-12T13:40:17.365Z,1.92
2018-08-12T13:42:46.750Z,1.92
2018-08-12T13:45:16.005Z,1.92
2018-08-12T13:47:45.932Z,1.90
2018-08-12T13:50:18.580Z,1.85
2018-08-12T13:52:48.238Z,1.72
2018-08-12T13:55:18.006Z,1.67
2018-08-12T13:57:47.624Z,1.70
2018-08-12T14:00:18.224Z,1.72
2018-08-12T14:02:47.347Z,2.05
2018-08-12T14:05:17.393Z,1.80
2018-08-12T14:07:47.058Z,1.95
2018-08-12T14:10:16.113Z,1.80
2018-08-12T14:12:45.193Z,2.15
2018-08-12T14:15:16.472Z,1.70
2018-08-12T14:17:46.893Z,1.77
2018-08-12T14:20:17.461Z,1.80
2018-08-12T14:22:46.464Z,1.82
2018-08-12T14:25:15.561Z,1.87
2018-08-12T14:27:45.141Z,1.75
2018-08-12T14:30:17.086Z,1.70
2018-08-12T14:32:47.006Z,1.72
2018-08-12T14:35:16.070Z,2.05
2018-08-12T14:37:45.425Z,1.47
2018-08-12T14:40:15.153Z,4.03
2018-08-12T14:42:44.477Z,2.17
2018-08-12T14:45:14.493Z,1.70
2018-08-12T14:47:43.877Z,1.80
2018-08-12T14:50:14.641Z,1.80
2018-08-12T14:52:43.959Z,1.50
2018-08-12T14:55:13.447Z,1.65
2018-08-12T14:57:42.978Z,1.47
2018-08-12T15:00:14.341Z,1.30
2018-08-12T15:02:43.564Z,1.40
2018-08-12T15:05:12.616Z,1.35
2018-08-12T15:07:41.649Z,1.47
2018-08-12T15:10:11.646Z,2.40
2018-08-12T15:12:41.731Z,1.67
2018-08-12T15:15:12.308Z,1.60
2018-08-12T15:17:42.787Z,1.35
2018-08-12T15:20:12.741Z,1.20
2018-08-12T15:22:41.959Z,1.50
2018-08-12T15:25:14.196Z,1.30
2018-08-12T15:27:43.328Z,1.30
2018-08-12T15:30:12.414Z,1.32
2018-08-12T15:32:41.750Z,1.70
2018-08-12T15:35:10.861Z,1.20
2018-08-12T15:37:39.972Z,1.67
2018-08-12T15:40:11.850Z,1.55
2018-08-12T15:42:41.284Z,1.52
2018-08-12T15:45:12.593Z,2.15
2018-08-12T15:47:42.417Z,1.37
2018-08-12T15:50:11.946Z,1.65
2018-08-12T15:52:42.142Z,1.57
2018-08-12T15:55:11.572Z,1.60
2018-08-12T15:57:40.748Z,1.60
2018-08-12T16:00:19.045Z,1.52
2018-08-12T16:02:48.169Z,1.50
2018-08-12T16:05:17.238Z,1.62
2018-08-12T16:07:47.365Z,1.55
2018-08-12T16:10:18.619Z,1.50
2018-08-12T16:12:49.068Z,1.90
2018-08-12T16:15:18.202Z,1.82
2018-08-12T16:17:47.328Z,1.80
2018-08-12T16:20:16.444Z,1.65
2018-08-12T16:22:45.565Z,1.70
2018-08-12T16:25:16.752Z,1.70
2018-08-12T16:27:45.861Z,1.60
2018-08-12T16:30:16.215Z,1.85
2018-08-12T16:32:45.352Z,1.67
2018-08-12T16:35:15.580Z,1.52
2018-08-12T16:37:45.251Z,1.72
2018-08-12T16:40:17.897Z,1.75
2018-08-12T16:42:47.244Z,1.55
2018-08-12T16:45:17.840Z,1.85
2018-08-12T16:47:47.461Z,1.50
2018-08-12T16:50:16.565Z,1.70
2018-08-12T16:52:45.964Z,1.57
2018-08-12T16:55:16.504Z,1.25
2018-08-12T16:57:46.529Z,1.40
2018-08-12T17:00:18.279Z,1.20
2018-08-12T17:02:47.672Z,1.40
2018-08-12T17:05:18.862Z,1.30
2018-08-12T17:07:48.409Z,1.37
2018-08-12T17:10:18.199Z,1.55
2018-08-12T17:12:47.272Z,1.37
2018-08-12T17:15:18.308Z,1.27
2018-08-12T17:17:48.023Z,1.35
2018-08-12T17:20:18.203Z,1.80
2018-08-12T17:22:47.521Z,1.62
2018-08-12T17:25:16.970Z,1.30
2018-08-12T17:27:46.469Z,1.17
2018-08-12T17:30:16.526Z,1.47
2018-08-12T17:32:45.628Z,1.35
2018-08-12T17:35:14.668Z,1.40
2018-08-12T17:37:44.946Z,1.42
2018-08-12T17:40:14.784Z,1.30
2018-08-12T17:42:43.915Z,1.10
2018-08-12T17:45:13.733Z,1.47
2018-08-12T17:47:43.446Z,1.42
2018-08-12T17:50:14.756Z,1.15
2018-08-12T17:52:44.703Z,1.57
2018-08-12T17:55:14.125Z,1.20
2018-08-12T17:57:43.554Z,1.50
2018-08-12T18:00:14.687Z,1.40
2018-08-12T18:02:43.734Z,1.35
2018-08-12T18:05:12.792Z,1.47
2018-08-12T18:07:42.065Z,1.35
2018-08-12T18:10:11.228Z,1.30
2018-08-12T18:12:40.516Z,1.40
2018-08-12T18:15:10.930Z,1.30
2018-08-12T18:17:40.878Z,1.50
2018-08-12T18:20:10.198Z,1.40
2018-08-12T18:22:39.268Z,1.77
2018-08-12T18:25:10.259Z,1.87
2018-08-12T18:27:39.571Z,1.62
2018-08-12T18:30:11.683Z,1.57
2018-08-12T18:32:41.064Z,2.00
2018-08-12T18:35:11.179Z,1.55
2018-08-12T18:37:40.367Z,1.75
2018-08-12T18:40:10.625Z,2.30
2018-08-12T18:42:39.843Z,3.00
2018-08-12T18:45:08.981Z,1.80
2018-08-12T18:47:38.249Z,2.45
2018-08-12T18:50:08.522Z,2.00
2018-08-12T18:52:37.628Z,1.92
2018-08-12T18:55:08.345Z,1.65
2018-08-12T18:57:37.888Z,1.85
2018-08-12T19:00:08.644Z,1.67
2018-08-12T19:02:38.061Z,2.62
2018-08-12T19:05:07.776Z,1.87
2018-08-12T19:07:36.785Z,1.70
2018-08-12T19:10:06.593Z,1.83
2018-08-12T19:12:35.694Z,2.05
2018-08-12T19:15:06.670Z,3.00
2018-08-12T19:17:35.753Z,2.30
2018-08-12T19:20:05.840Z,2.17
2018-08-12T19:22:35.305Z,2.90
2018-08-12T19:25:04.466Z,2.43
2018-08-12T19:27:33.939Z,2.33
2018-08-12T19:30:02.965Z,2.60
2018-08-12T19:32:31.992Z,2.53
2018-08-12T19:35:01.085Z,2.40
2018-08-12T19:37:30.137Z,1.97
2018-08-12T19:39:59.230Z,2.60
2018-08-12T19:42:28.242Z,2.23
2018-08-12T19:44:57.321Z,2.67
2018-08-12T19:47:26.338Z,2.27
2018-08-12T19:49:55.368Z,2.50
2018-08-12T19:52:24.436Z,2.40
2018-08-12T19:54:53.473Z,2.17
2018-08-12T19:57:22.556Z,1.90
2018-08-12T19:59:51.596Z,2.80
2018-08-12T20:02:20.677Z,2.00
2018-08-12T20:04:49.701Z,2.00
2018-08-12T20:07:18.764Z,2.60
2018-08-12T20:09:47.796Z,2.40
2018-08-12T20:12:17.107Z,2.27
2018-08-12T20:14:46.034Z,1.83
2018-08-12T20:17:15.405Z,2.00
2018-08-12T20:19:44.471Z,2.47
2018-08-12T20:22:15.257Z,2.30
2018-08-12T20:24:44.957Z,2.00
2018-08-12T20:27:14.113Z,1.77
2018-08-12T20:29:43.864Z,1.87
2018-08-12T20:32:12.897Z,1.93
2018-08-12T20:34:41.954Z,1.73
2018-08-12T20:37:10.983Z,2.00
2018-08-12T20:39:40.070Z,2.10
2018-08-12T20:42:09.170Z,5.80
2018-08-12T20:44:38.206Z,3.50
2018-08-12T20:47:07.333Z,2.50
2018-08-12T20:49:36.662Z,2.47
2018-08-12T20:52:05.827Z,2.20
2018-08-12T20:54:34.852Z,1.80
2018-08-12T20:57:03.869Z,2.20
2018-08-12T20:59:32.942Z,2.07
2018-08-12T21:02:01.995Z,1.77
2018-08-12T21:04:30.998Z,1.77
2018-08-12T21:07:00.341Z,1.97
2018-08-12T21:09:29.387Z,1.80
2018-08-12T21:11:58.647Z,2.07
2018-08-12T21:14:27.778Z,1.70
2018-08-12T21:16:56.783Z,1.67
2018-08-12T21:19:25.952Z,1.90
2018-08-12T21:21:55.015Z,1.90
2018-08-12T21:24:24.084Z,2.00
2018-08-12T21:26:53.160Z,1.73
2018-08-12T21:29:22.257Z,1.50
2018-08-12T21:31:51.365Z,1.87
2018-08-12T21:34:20.460Z,1.70
2018-08-12T21:36:49.485Z,1.70
2018-08-12T21:39:18.558Z,2.03
2018-08-12T21:41:47.590Z,1.83
2018-08-12T21:44:16.642Z,2.03
2018-08-12T21:46:46.061Z,1.90
2018-08-12T21:49:15.092Z,1.80
2018-08-12T21:51:44.109Z,2.00
2018-08-12T21:54:13.432Z,1.80
2018-08-12T21:56:42.440Z,1.97
2018-08-12T21:59:11.427Z,1.90
2018-08-12T22:01:40.496Z,1.90
2018-08-12T22:04:09.548Z,1.50
2018-08-12T22:06:38.621Z,1.80
2018-08-12T22:09:09.259Z,1.93
2018-08-12T22:11:38.331Z,1.57
2018-08-12T22:14:07.379Z,2.07
2018-08-12T22:16:36.622Z,1.97
2018-08-12T22:19:05.726Z,1.70
2018-08-12T22:21:34.764Z,1.70
2018-08-12T22:24:03.917Z,2.00
2018-08-12T22:26:32.912Z,1.67
2018-08-12T22:29:01.931Z,1.70
2018-08-12T22:31:30.981Z,2.00
2018-08-12T22:34:00.041Z,1.70
2018-08-12T22:36:29.080Z,1.70
2018-08-12T22:38:58.094Z,1.40
2018-08-12T22:41:27.256Z,1.90
2018-08-12T22:43:56.305Z,1.70
2018-08-12T22:46:25.355Z,1.77
2018-08-12T22:48:54.385Z,1.60
2018-08-12T22:51:23.425Z,1.80
2018-08-12T22:53:52.460Z,1.80
2018-08-12T22:56:21.581Z,1.67
2018-08-12T22:58:50.627Z,1.50
2018-08-12T23:01:19.884Z,1.47
2018-08-12T23:03:49.147Z,1.40
2018-08-12T23:06:18.161Z,1.60
2018-08-12T23:08:47.215Z,1.40
2018-08-12T23:11:16.273Z,1.50
2018-08-12T23:13:45.281Z,1.40
2018-08-12T23:16:26.921Z,1.70
2018-08-12T23:18:55.977Z,1.50
2018-08-12T23:21:24.994Z,1.50
2018-08-12T23:23:54.102Z,1.47
2018-08-12T23:26:24.257Z,1.53
2018-08-12T23:28:53.293Z,1.57
2018-08-12T23:31:22.351Z,1.57
2018-08-12T23:33:51.488Z,1.40
2018-08-12T23:36:20.557Z,1.50
2018-08-12T23:38:49.617Z,1.70
2018-08-12T23:41:18.685Z,1.43
2018-08-12T23:43:47.721Z,1.60
2018-08-12T23:46:16.781Z,1.60
2018-08-12T23:48:45.805Z,1.70
2018-08-12T23:51:14.852Z,1.43
2018-08-12T23:53:43.870Z,1.60
2018-08-12T23:56:12.954Z,1.40
2018-08-12T23:58:42.016Z,1.40
